Messwerte Podor

Temperatur

Temperatur
°C
1618891200 4.00 4.00 25
1618894800 5.00 5.00
1618898400 6.00 6.00 24
1618902000 7.00 7.00 23
1618905600 8.00 8.00 23
1618909200 9.00 9.00 26
1618912800 10.00 10.00 29
1618916400 11.00 11.00
1618920000 12.00 12.00 36
1618923600 13.00 13.00
1618927200 14.00 14.00
1618930800 15.00 15.00 40
1618934400 16.00 16.00 41
1618938000 17.00 17.00 41
1618941600 18.00 18.00 41
1618945200 19.00 19.00 38
1618948800 20.00 20.00
1618952400 21.00 21.00 33
1618956000 22.00 22.00 31
1618959600 23.00 23.00 28
1618963200 0.00 0.00 26
1618966800 1.00 1.00
1618970400 2.00 2.00
1618974000 3.00 3.00 22

Aktuellste Messwerte

Wettercharakter
Wetter: meist klar
Temperatur
22 °C
Feuchtigkeit
70 %
Wind
10 km/hWindrichtung: Nordost
Luftdruck
1009 hPa
Messzeit: 21. April 2021, 3.00Datenquelle: METAR

Weitere Messstationen in der Nähe

Messstation Temperatur Entfernung
Linguere - 142 km
Saint-Louis 18 °C 163 km
Matam - 215 km
Diourbel - 260 km
Kaolack - 304 km
Dakar 20 °C 345 km
Tambacounda - 349 km

Wind

Windrichtung Böen Mittelwind
° km/h km/h
1618891200 4.00 3.00 - 4.00 360° 5
1618894800 5.00 4.00 - 5.00
1618898400 6.00 5.00 - 6.00 320° 5
1618902000 7.00 6.00 - 7.00 320° 5
1618905600 8.00 7.00 - 8.00 320° 5
1618909200 9.00 8.00 - 9.00 320° 5
1618912800 10.00 9.00 - 10.00 320° 5
1618916400 11.00 10.00 - 11.00
1618920000 12.00 11.00 - 12.00 320° 5
1618923600 13.00 12.00 - 13.00
1618927200 14.00 13.00 - 14.00
1618930800 15.00 14.00 - 15.00 80° 10
1618934400 16.00 15.00 - 16.00 80° 5
1618938000 17.00 16.00 - 17.00 80° 5
1618941600 18.00 17.00 - 18.00 80° 5
1618945200 19.00 18.00 - 19.00 40° 5
1618948800 20.00 19.00 - 20.00
1618952400 21.00 20.00 - 21.00 40° 5
1618956000 22.00 21.00 - 22.00 40° 5
1618959600 23.00 22.00 - 23.00 40° 10
1618963200 0.00 23.00 - 0.00 40° 10
1618966800 1.00 0.00 - 1.00
1618970400 2.00 1.00 - 2.00
1618974000 3.00 2.00 - 3.00 40° 10

Ihre Wetterstation

Fehlt Ihre Wetterstation auf unserem Portal?

Schreiben Sie an network@meteonews.ch

Klima

Wann ist es am wärmsten? Wann regnet es am wenigsten? Unsere Klimadaten geben Auskunft.